createdAt,value
2022-08-12T00:01:11.062Z,61.95
2022-08-12T00:05:28.202Z,61.92
2022-08-12T00:09:44.135Z,62.17
2022-08-12T00:14:00.032Z,62.14
2022-08-12T00:18:15.970Z,63.93
2022-08-12T00:22:33.077Z,64.02
2022-08-12T00:26:49.494Z,64.35
2022-08-12T00:31:05.627Z,64.67
2022-08-12T00:35:24.377Z,64.74
2022-08-12T00:39:42.147Z,64.93
2022-08-12T00:43:42.963Z,65.32
2022-08-12T00:47:41.122Z,65.74
2022-08-12T00:51:59.073Z,65.62
2022-08-12T00:55:58.667Z,65.72
2022-08-12T01:00:11.443Z,66.44
2022-08-12T01:04:29.844Z,66.45
2022-08-12T01:08:48.044Z,67.05
2022-08-12T01:12:46.186Z,67.07
2022-08-12T01:16:43.870Z,67.88
2022-08-12T01:20:52.480Z,68.21
2022-08-12T01:25:11.863Z,68.13
2022-08-12T01:29:15.626Z,68.22
2022-08-12T01:33:21.911Z,68.54
2022-08-12T01:37:24.574Z,68.64
2022-08-12T01:41:26.073Z,69.12
2022-08-12T01:45:26.675Z,69.74
2022-08-12T01:49:48.678Z,69.83
2022-08-12T01:54:14.872Z,69.77
2022-08-12T01:58:32.013Z,70.09
2022-08-12T02:03:03.953Z,70.51
2022-08-12T02:07:37.845Z,70.70
2022-08-12T02:12:06.111Z,70.92
2022-08-12T02:16:46.732Z,71.11
2022-08-12T02:21:07.414Z,71.80
2022-08-12T02:25:13.562Z,71.93
2022-08-12T02:29:13.418Z,72.32
2022-08-12T02:33:12.136Z,72.36
2022-08-12T02:37:14.005Z,72.59
2022-08-12T02:41:17.134Z,72.75
2022-08-12T02:45:26.019Z,73.14
2022-08-12T02:49:35.065Z,73.25
2022-08-12T02:53:34.587Z,73.61
2022-08-12T02:57:32.954Z,74.06
2022-08-12T03:01:36.290Z,74.02
2022-08-12T03:05:52.483Z,74.05
2022-08-12T03:10:03.711Z,74.07
2022-08-12T03:14:03.875Z,74.00
2022-08-12T03:18:24.911Z,73.95
2022-08-12T03:22:27.097Z,73.84
2022-08-12T03:26:28.008Z,73.69
2022-08-12T03:30:32.720Z,73.74
2022-08-12T03:34:34.013Z,74.38
2022-08-12T03:38:37.366Z,74.45
2022-08-12T03:42:42.929Z,74.09
2022-08-12T03:47:04.057Z,74.59
2022-08-12T03:51:21.206Z,74.79
2022-08-12T03:55:36.530Z,75.02
2022-08-12T03:59:51.934Z,75.05
2022-08-12T04:03:53.343Z,75.42
2022-08-12T04:07:58.222Z,74.92
2022-08-12T04:12:14.422Z,74.80
2022-08-12T04:16:13.682Z,74.74
2022-08-12T04:20:14.432Z,75.15
2022-08-12T04:24:12.551Z,75.10
2022-08-12T04:28:13.539Z,75.42
2022-08-12T04:32:11.641Z,75.26
2022-08-12T04:36:09.516Z,75.04
2022-08-12T04:40:11.283Z,73.92
2022-08-12T04:44:10.416Z,72.13
2022-08-12T04:48:07.760Z,70.45
2022-08-12T04:52:05.937Z,70.28
2022-08-12T04:56:03.057Z,69.34
2022-08-12T05:00:00.154Z,68.17
2022-08-12T05:03:58.929Z,67.73
2022-08-12T05:07:55.976Z,67.32
2022-08-12T05:11:54.076Z,66.88
2022-08-12T05:16:05.070Z,67.04
2022-08-12T05:20:03.113Z,65.99
2022-08-12T05:24:01.584Z,65.51
2022-08-12T05:28:00.642Z,65.21
2022-08-12T05:31:58.198Z,65.04
2022-08-12T05:35:55.289Z,65.72
2022-08-12T05:39:52.409Z,65.79
2022-08-12T05:43:56.748Z,65.91
2022-08-12T05:47:54.339Z,65.28
2022-08-12T05:51:51.826Z,65.25
2022-08-12T05:55:52.873Z,65.45
2022-08-12T05:59:49.864Z,64.85
2022-08-12T06:03:47.032Z,65.39
2022-08-12T06:08:01.955Z,64.25
2022-08-12T06:12:05.417Z,63.95
2022-08-12T06:16:03.902Z,61.90
2022-08-12T06:20:26.831Z,61.15
2022-08-12T06:24:24.327Z,61.07
2022-08-12T06:28:22.730Z,58.73
2022-08-12T06:32:19.823Z,57.84
2022-08-12T06:36:30.091Z,58.01
2022-08-12T06:40:50.423Z,55.95
2022-08-12T06:44:47.463Z,54.79
2022-08-12T06:48:44.518Z,54.50
2022-08-12T06:52:43.679Z,53.75
2022-08-12T06:57:02.885Z,52.99
2022-08-12T07:01:00.260Z,52.34
2022-08-12T07:04:57.564Z,51.15
2022-08-12T07:08:54.543Z,52.15
2022-08-12T07:12:54.964Z,50.71
2022-08-12T07:16:56.833Z,50.45
2022-08-12T07:20:54.146Z,49.95
2022-08-12T07:25:11.272Z,50.01
2022-08-12T07:29:09.961Z,49.85
2022-08-12T07:33:09.749Z,48.86
2022-08-12T07:37:06.756Z,49.18
2022-08-12T07:41:14.511Z,48.43
2022-08-12T07:45:13.914Z,48.13
2022-08-12T07:49:19.705Z,47.21
2022-08-12T07:53:16.913Z,47.09
2022-08-12T07:57:15.597Z,46.40
2022-08-12T08:01:17.644Z,45.95
2022-08-12T08:05:15.591Z,44.24
2022-08-12T08:09:15.875Z,42.70
2022-08-12T08:13:13.755Z,40.67
2022-08-12T08:17:11.610Z,39.93
2022-08-12T08:21:11.212Z,37.67
2022-08-12T08:25:34.744Z,36.13
2022-08-12T08:29:26.165Z,34.13
2022-08-12T08:34:01.593Z,32.23
2022-08-12T08:37:46.304Z,33.55
2022-08-12T08:42:19.374Z,32.41
2022-08-12T08:46:17.046Z,31.66
2022-08-12T08:50:15.339Z,33.73
2022-08-12T08:54:13.310Z,33.56
2022-08-12T08:58:11.672Z,32.61
2022-08-12T09:02:09.250Z,33.73
2022-08-12T09:06:07.267Z,33.67
2022-08-12T09:10:09.174Z,34.45
2022-08-12T09:14:29.260Z,35.69
2022-08-12T09:18:33.374Z,36.08
2022-08-12T09:22:30.904Z,36.46
2022-08-12T09:26:33.806Z,37.43
2022-08-12T09:30:41.048Z,37.59
2022-08-12T09:34:42.550Z,37.50
2022-08-12T09:38:58.490Z,37.51
2022-08-12T09:43:18.675Z,35.96
2022-08-12T09:47:16.521Z,33.72
2022-08-12T09:51:21.659Z,34.06
2022-08-12T09:56:05.995Z,32.34
2022-08-12T10:00:17.240Z,30.01
2022-08-12T10:04:04.151Z,29.03
2022-08-12T10:08:04.974Z,28.47
2022-08-12T10:12:32.750Z,27.40
2022-08-12T10:16:38.623Z,27.49
2022-08-12T10:20:37.480Z,27.66
2022-08-12T10:24:34.613Z,25.97
2022-08-12T10:28:56.236Z,27.49
2022-08-12T10:33:00.239Z,26.97
2022-08-12T10:37:22.918Z,26.70
2022-08-12T10:41:57.347Z,27.62
2022-08-12T10:45:58.292Z,29.81
2022-08-12T10:50:05.641Z,28.97
2022-08-12T10:54:14.351Z,27.86
2022-08-12T10:58:14.422Z,25.73
2022-08-12T11:04:32.099Z,24.18
2022-08-12T11:07:09.657Z,21.62
2022-08-12T11:11:13.217Z,22.10
2022-08-12T11:15:18.620Z,22.68
2022-08-12T11:19:18.090Z,22.96
2022-08-12T11:23:25.405Z,23.99
2022-08-12T11:27:34.239Z,26.62
2022-08-12T11:31:56.287Z,24.59
2022-08-12T11:35:53.128Z,25.25
2022-08-12T11:44:36.350Z,25.42
2022-08-12T11:48:27.077Z,22.85
2022-08-12T11:52:55.523Z,22.53
2022-08-12T11:56:42.894Z,23.10
2022-08-12T12:05:06.972Z,24.72
2022-08-12T12:09:04.073Z,24.73
2022-08-12T12:13:05.173Z,24.47
2022-08-12T12:17:19.917Z,25.66
2022-08-12T12:21:30.019Z,27.45
2022-08-12T12:26:07.063Z,25.22
2022-08-12T12:30:18.138Z,25.10
2022-08-12T12:34:30.238Z,25.04
2022-08-12T12:38:28.102Z,28.25
2022-08-12T12:42:42.843Z,28.80
2022-08-12T12:46:42.095Z,26.90
2022-08-12T12:51:13.978Z,27.43
2022-08-12T12:55:36.009Z,27.73
2022-08-12T12:59:35.000Z,27.15
2022-08-12T13:03:54.244Z,27.41
2022-08-12T13:08:00.640Z,26.98
2022-08-12T13:12:01.082Z,27.14
2022-08-12T13:16:01.761Z,28.98
2022-08-12T13:20:06.614Z,30.07
2022-08-12T13:24:10.144Z,28.99
2022-08-12T13:28:09.630Z,26.96
2022-08-12T13:32:19.576Z,25.62
2022-08-12T13:36:24.270Z,25.87
2022-08-12T13:40:33.964Z,25.91
2022-08-12T13:44:31.354Z,26.68
2022-08-12T13:48:30.574Z,33.02
2022-08-12T13:52:27.593Z,32.13
2022-08-12T13:56:31.493Z,31.89
2022-08-12T14:00:38.981Z,30.61
2022-08-12T14:04:37.205Z,30.51
2022-08-12T14:08:34.795Z,30.63
2022-08-12T14:12:40.216Z,30.64
2022-08-12T14:16:52.073Z,30.08
2022-08-12T14:20:58.460Z,28.27
2022-08-12T14:24:58.379Z,26.95
2022-08-12T14:28:57.735Z,27.19
2022-08-12T14:33:03.242Z,25.26
2022-08-12T14:37:02.430Z,23.75
2022-08-12T14:41:07.497Z,24.84
2022-08-12T14:45:08.041Z,23.67
2022-08-12T14:49:27.511Z,22.78
2022-08-12T14:57:57.939Z,23.39
2022-08-12T15:01:55.557Z,22.98
2022-08-12T15:06:05.564Z,22.38
2022-08-12T15:10:04.332Z,21.63
2022-08-12T15:14:01.722Z,24.46
2022-08-12T15:18:06.965Z,26.96
2022-08-12T15:22:35.633Z,28.72
2022-08-12T15:26:28.310Z,28.92
2022-08-12T15:30:30.281Z,27.33
2022-08-12T15:34:30.889Z,25.05
2022-08-12T15:38:28.224Z,23.36
2022-08-12T15:42:26.485Z,23.97
2022-08-12T15:46:27.647Z,24.32
2022-08-12T15:50:29.657Z,25.57
2022-08-12T15:54:34.057Z,26.74
2022-08-12T15:58:33.724Z,26.71
2022-08-12T16:02:40.771Z,27.19
2022-08-12T16:07:05.625Z,28.33
2022-08-12T16:10:57.948Z,29.32
2022-08-12T16:14:57.497Z,30.95
2022-08-12T16:19:00.820Z,30.70
2022-08-12T16:23:26.322Z,28.90
2022-08-12T16:27:25.662Z,28.22
2022-08-12T16:31:24.097Z,28.52
2022-08-12T16:35:21.360Z,27.63
2022-08-12T16:39:27.818Z,27.42
2022-08-12T16:43:30.374Z,27.30
2022-08-12T16:47:58.214Z,27.61
2022-08-12T16:51:50.285Z,30.08
2022-08-12T16:55:50.739Z,30.97
2022-08-12T16:59:54.146Z,31.72
2022-08-12T17:04:09.085Z,32.53
2022-08-12T17:08:09.690Z,33.02
2022-08-12T17:12:07.998Z,33.62
2022-08-12T17:16:10.701Z,33.98
2022-08-12T17:20:34.674Z,35.50
2022-08-12T17:24:44.078Z,37.54
2022-08-12T17:28:53.776Z,38.31
2022-08-12T17:32:53.473Z,39.00
2022-08-12T17:36:51.650Z,39.84
2022-08-12T17:40:49.114Z,40.60
2022-08-12T17:44:49.119Z,41.08
2022-08-12T17:48:55.051Z,41.37
2022-08-12T17:53:00.468Z,41.06
2022-08-12T17:57:01.337Z,41.56
2022-08-12T18:01:02.270Z,41.63
2022-08-12T18:05:09.361Z,41.61
2022-08-12T18:09:08.574Z,41.94
2022-08-12T18:13:06.977Z,42.31
2022-08-12T18:17:08.253Z,42.73
2022-08-12T18:21:09.793Z,43.18
2022-08-12T18:25:18.661Z,43.57
2022-08-12T18:29:42.252Z,44.45
2022-08-12T18:33:45.670Z,45.10
2022-08-12T18:37:43.210Z,45.76
2022-08-12T18:41:43.386Z,46.84
2022-08-12T18:45:57.034Z,47.39
2022-08-12T18:49:57.380Z,47.83
2022-08-12T18:54:05.293Z,48.65
2022-08-12T18:58:10.107Z,49.71
2022-08-12T19:02:19.499Z,50.27
2022-08-12T19:06:19.876Z,51.08
2022-08-12T19:10:23.034Z,51.56
2022-08-12T19:14:32.814Z,52.43
2022-08-12T19:18:32.357Z,52.13
2022-08-12T19:22:35.277Z,52.22
2022-08-12T19:26:35.180Z,52.90
2022-08-12T19:30:54.499Z,53.36
2022-08-12T19:36:06.632Z,53.09
2022-08-12T19:39:23.143Z,53.93
2022-08-12T19:43:26.837Z,54.46
2022-08-12T19:47:46.068Z,54.85
2022-08-12T19:51:49.595Z,54.47
2022-08-12T19:55:52.856Z,54.96
2022-08-12T20:00:04.099Z,55.69
2022-08-12T20:04:03.275Z,56.12
2022-08-12T20:08:01.079Z,56.82
2022-08-12T20:12:11.962Z,57.63
2022-08-12T20:16:45.492Z,57.38
2022-08-12T20:20:30.569Z,57.21
2022-08-12T20:24:37.592Z,57.87
2022-08-12T20:28:34.860Z,57.80
2022-08-12T20:32:37.606Z,58.04
2022-08-12T20:36:45.395Z,57.73
2022-08-12T20:40:47.807Z,58.25
2022-08-12T20:44:45.336Z,58.50
2022-08-12T20:48:44.359Z,58.78
2022-08-12T20:52:45.306Z,59.13
2022-08-12T20:56:43.078Z,59.45
2022-08-12T21:00:43.623Z,60.22
2022-08-12T21:04:59.239Z,60.76
2022-08-12T21:08:59.228Z,60.82
2022-08-12T21:12:57.341Z,61.17
2022-08-12T21:16:55.184Z,61.32
2022-08-12T21:20:54.565Z,61.25
2022-08-12T21:24:53.090Z,61.55
2022-08-12T21:28:56.780Z,61.60
2022-08-12T21:32:56.571Z,61.80
2022-08-12T21:36:53.953Z,61.92
2022-08-12T21:40:53.851Z,62.22
2022-08-12T21:45:46.962Z,62.57
2022-08-12T21:49:16.460Z,63.65
2022-08-12T21:54:07.889Z,62.96
2022-08-12T21:57:54.640Z,62.98
2022-08-12T22:01:59.586Z,63.32
2022-08-12T22:06:20.289Z,63.76
2022-08-12T22:10:28.541Z,64.24
2022-08-12T22:14:28.995Z,65.61
2022-08-12T22:18:27.473Z,65.30
2022-08-12T22:22:25.389Z,66.41
2022-08-12T22:26:37.593Z,66.05
2022-08-12T22:30:53.521Z,66.21
2022-08-12T22:35:10.445Z,66.51
2022-08-12T22:39:19.368Z,66.75
2022-08-12T22:43:36.382Z,66.82
2022-08-12T22:47:55.861Z,67.30
2022-08-12T22:52:00.256Z,67.43
2022-08-12T22:56:06.697Z,68.05
2022-08-12T23:00:09.063Z,67.87
2022-08-12T23:04:28.530Z,67.77
2022-08-12T23:08:31.864Z,68.80
2022-08-12T23:12:49.099Z,68.45
2022-08-12T23:16:47.249Z,69.17
2022-08-12T23:20:45.071Z,69.23
2022-08-12T23:24:53.669Z,69.57
2022-08-12T23:29:26.045Z,69.54
2022-08-12T23:34:00.682Z,69.99
2022-08-12T23:37:47.577Z,69.90
2022-08-12T23:41:56.307Z,69.88
2022-08-12T23:46:19.497Z,70.86
2022-08-12T23:50:17.174Z,70.73
2022-08-12T23:54:38.773Z,71.18
2022-08-12T23:58:37.022Z,71.63
